EVLA/LPX METAR and TAF weather

Enter ICAO airport designator
Station Type Date Time Source
EVLA METAR 2018/10/21 05:20 UTC NOAA

EVLA 210520Z AUTO 06003KT 6000 FEW003/// M00/M00 Q1025


Station Type Date Time Source
EVLA Decoded METAR 2018/10/21 05:20 UTC NOAA

Liepaja International Airport, Latvia (EVLA) 56-31N 021-05E
Oct 21, 2018 - 01:20 AM EDT / 2018.10.21 0520 UTC
Wind: from the ENE (060 degrees) at 3 MPH (3 KT):0
Visibility: 3 mile(s):0
Sky conditions: mostly clear
Temperature: 32 F (0 C)
Dew Point: 32 F (0 C)
Relative Humidity: 100%
Pressure (altimeter): 30.27 in. Hg (1025 hPa)
ob: EVLA 210520Z AUTO 06003KT 6000 FEW003/// M00/M00 Q1025
cycle: 5

Station Type Date Time Source
EVLA TAF 2018/10/21 06:12 UTC NOAA

TAF TAF EVLA 210509Z 2106/2206 24007KT 3000 BR BKN003
TEMPO 2106/2108 0500 FZFG VV001
BECMG 2108/2110 9000 NSW SCT030
TEMPO 2119/2206 22012G25KT


Example: see airport list